KMTN/MTN METAR and TAF weather

Enter ICAO airport designator
Station Type Date Time Source
KMTN METAR 2020/09/27 14:54 UTC NOAA

KMTN 271454Z 09003KT 4SM BR OVC006 21/21 A3001


Station Type Date Time Source
KMTN Decoded METAR 2020/09/27 14:54 UTC NOAA

Baltimore / Martin, MD, United States (KMTN) 39-20N 076-25W
Sep 27, 2020 - 10:54 AM EDT / 2020.09.27 1454 UTC
Wind: from the E (090 degrees) at 3 MPH (3 KT):0
Visibility: 4 mile(s):0
Sky conditions: overcast
Weather: mist
Temperature: 69 F (21 C)
Dew Point: 69 F (21 C)
Relative Humidity: 100%
Pressure (altimeter): 30.01 in. Hg (1016 hPa)
ob: KMTN 271454Z 09003KT 4SM BR OVC006 21/21 A3001
cycle: 15

Station Type Date Time Source
KMTN TAF 2020/09/27 14:22 UTC NOAA

TAF
AMD KMTN 271420Z 2714/2812 VRB03KT 4SM BR OVC004
FM271500 VRB03KT P6SM BKN015
FM271800 14005KT P6SM SCT050
FM280300 17005KT P6SM BKN250
FM280600 17005KT P6SM OVC030
FM280700 18005KT 6SM BR OVC015

Example: see airport list